• Join FlightAware (Why Join?)
  • Login
  • US Flag 
03:20AM EST


 

Airport Tracker/Info


-or-


 

Live Flight TrackerFlight Track Log ✈ LXJ342 ✈ 30-Jun-2013 ✈ KFLL - KLAS

Flight Track Log - Related Links

Times and Time Zones

All times are in EDT time to prevent confusion due to time zone crossing. See the LXJ342 flight status page for this flight to view local times or setup timezone preferences in your user account.

Time Position Orientation Groundspeed Altitude Reporting Facility
EDT Latitude Longitude Course Direction KTS MPH feet Rate Location/Type
09:27AM 26.0719 -80.1783 276° West 171 197 800  Level Miami Center
09:29AM 26.0803 -80.2708 276° West 262 302 4,100 1,860 Climbing Miami Center
09:30AM 26.1056 -80.3503 290° West 273 314 5,200 1,380 Climbing Miami Center
09:31AM 26.1414 -80.4256 298° West 281 323 7,000 2,220 Climbing Miami Center
09:32AM 26.1853 -80.5100 300° West 296 341 9,900 2,760 Climbing Miami Center
09:33AM 26.2228 -80.5947 296° West 301 346 12,700 2,460 Climbing Miami Center
09:34AM 26.2819 -80.6497 320° Northwest 301 346 14,900 2,220 Climbing Miami Center
09:35AM 26.3528 -80.7331 313° West 327 376 17,200 1,920 Climbing Miami Center
09:36AM 26.3961 -80.8319 296° West 344 396 18,800 1,560 Climbing Miami Center
09:37AM 26.4456 -80.9333 299° West 367 422 20,400 1,320 Climbing Miami Center
09:38AM 26.5222 -81.0219 314° West 383 441 21,500 1,080 Climbing Miami Center
09:39AM 26.5928 -81.1103 312° West 383 441 22,600 1,500 Climbing Miami Center
09:40AM 26.6617 -81.1872 315° West 388 447 24,500 1,620 Climbing Miami Center
09:41AM 26.7300 -81.2756 311° West 380 437 25,900 1,320 Climbing Miami Center
09:42AM 26.7761 -81.3983 293° West 380 437 27,200 1,080 Climbing Miami Center
09:43AM 26.8017 -81.5181 283° West 386 444 28,100 900 Climbing Miami Center
09:44AM 26.8247 -81.6444 282° West 407 468 29,000 780 Climbing Miami Center
09:45AM 26.8481 -81.7594 283° West 415 478 29,700 780 Climbing Miami Center
09:46AM 26.8725 -81.8933 282° West 425 489 30,600 900 Climbing Miami Center
09:47AM 26.9058 -82.0181 287° West 425 489 31,500 900 Climbing Miami Center
09:48AM 26.9450 -82.1478 289° West 431 496 32,400 900 Climbing Miami Center
09:49AM 26.9842 -82.2756 289° West 437 503 33,300 840 Climbing Miami Center
09:50AM 27.0272 -82.4033 291° West 443 510 34,100 780 Climbing Miami Center
09:51AM 27.0661 -82.5311 289° West 443 510 34,900 660 Climbing Miami Center
09:52AM 27.1028 -82.6564 288° West 432 497 35,500 540 Climbing Miami Center
09:53AM 27.1436 -82.7844 290° West 432 497 36,000 420 Climbing Miami Center
09:54AM 27.1803 -82.9075 289° West 432 497 36,400 600 Climbing Miami Center
09:55AM 27.2208 -83.0356 290° West 432 497 37,300 780 Climbing Miami Center
09:56AM 27.2594 -83.1567 290° West 432 497 38,000 300 Climbing Miami Center
09:57AM 27.2936 -83.2800 287° West 427 491 38,000  Level Miami Center
09:58AM 27.3064 -83.4092 276° West 421 484 38,000  Level Miami Center
09:59AM 27.3256 -83.5411 279° West 421 484 38,000  Level Miami Center
10:00AM 27.3403 -83.6728 277° West 431 496 38,000  Level Miami Center
10:01AM 27.3606 -83.8117 279° West 436 502 38,000  Level Miami Center
10:02AM 27.3725 -83.9525 275° West 449 517 38,000  Level Miami Center
10:03AM 27.3806 -84.0886 274° West 449 517 38,000  Level Miami Center
10:04AM 27.3922 -84.2247 276° West 449 517 38,000  Level Miami Center
10:05AM 27.3992 -84.3350 274° West 449 517 38,000  Level Miami Center
10:07AM 27.4447 -84.6950 278° West 448 516 38,000  Level Jacksonville Center
10:08AM 27.4928 -84.8292 292° West 462 532 38,000 -60 Level Jacksonville Center
10:09AM 27.5514 -84.9542 298° West 457 526 37,900  Descending Jacksonville Center
10:10AM 27.6100 -85.0700 300° West 445 512 38,000  Climbing Jacksonville Center
10:11AM 27.6661 -85.1956 297° West 445 512 38,000  Level Jacksonville Center
10:12AM 27.6972 -85.3203 286° West 430 495 38,000  Level Jacksonville Center
10:13AM 27.7117 -85.4425 278° West 414 476 38,000  Level Jacksonville Center
10:14AM 27.7253 -85.5883 276° West 430 495 38,000  Level Jacksonville Center
10:15AM 27.7414 -85.7153 278° West 430 495 38,000  Level Jacksonville Center
10:16AM 27.7572 -85.8469 278° West 428 493 38,000  Level Jacksonville Center
10:17AM 27.7731 -85.9764 278° West 428 493 38,000  Level Jacksonville Center
10:18AM 27.7906 -86.1153 278° West 436 502 38,000  Level Jacksonville Center
10:19AM 27.8075 -86.2589 278° West 436 502 38,000  Level Jacksonville Center
10:20AM 27.8122 -86.3953 272° West 449 517 38,000  Level Jacksonville Center
10:21AM 27.7528 -86.5172 241° Southwest 424 488 38,000  Level Jacksonville Center
10:23AM 27.6161 -86.7342 235° Southwest 449 517 38,000  Level Houston Center
10:24AM 27.5508 -86.8622 240° Southwest 447 514 38,000  Level Houston Center
10:25AM 27.4917 -86.9850 242° Southwest 447 514 38,000  Level Houston Center
10:26AM 27.4336 -87.1089 242° Southwest 446 513 38,000  Level Houston Center
10:27AM 27.3811 -87.2361 245° Southwest 448 516 38,000  Level Houston Center
10:28AM 27.3186 -87.3914 246° West 453 521 38,000  Level Houston Center
10:29AM 27.2808 -87.5289 253° West 458 527 38,000  Level Houston Center
10:30AM 27.2478 -87.6700 255° West 467 537 38,000  Level Houston Center
10:31AM 27.2161 -87.8006 255° West 462 532 38,000  Level Houston Center
10:32AM 27.1828 -87.9500 256° West 466 536 38,000  Level Houston Center
10:33AM 27.1486 -88.0936 255° West 474 545 38,000  Level Houston Center
10:34AM 27.1394 -88.2611 267° West 469 540 38,000  Level Houston Center
10:36AM 27.1336 -88.4078 267° West 471 542 38,000  Level Houston Center
10:37AM 27.1300 -88.5522 268° West 466 536 38,000  Level Houston Center
10:38AM 27.1308 -88.6944 270° West 461 531 38,000  Level Houston Center
10:39AM 27.1306 -88.8367 270° West 458 527 38,000  Level Houston Center
10:40AM 27.1325 -88.9722 271° West 444 511 38,000  Level Houston Center
10:41AM 27.1311 -89.1086 269° West 440 506 38,000  Level Houston Center
10:42AM 27.1317 -89.2467 270° West 441 507 38,000  Level Houston Center
10:43AM 27.1353 -89.4089 271° West 439 505 38,000  Level Houston Center
10:44AM 27.1403 -89.5411 272° West 436 502 38,000  Level Houston Center
10:45AM 27.1500 -89.6733 275° West 433 498 38,000  Level Houston Center
10:46AM 27.1619 -89.8053 276° West 431 496 38,000  Level Houston Center
10:47AM 27.1828 -89.9386 280° West 432 497 38,000  Level Houston Center
10:48AM 27.2025 -90.0747 279° West 436 502 38,000  Level Houston Center
10:49AM 27.2233 -90.2136 280° West 439 505 38,000  Level Houston Center
10:50AM 27.2444 -90.3792 278° West 443 510 38,000  Level Houston Center
10:51AM 27.2539 -90.5189 274° West 446 513 38,000  Level Houston Center
10:52AM 27.2622 -90.6572 274° West 445 512 38,000  Level Houston Center
10:53AM 27.2689 -90.7975 273° West 447 514 38,000  Level Houston Center
10:54AM 27.2769 -90.9361 274° West 447 514 38,000  Level Houston Center
10:55AM 27.2869 -91.0758 275° West 447 514 38,100 300 Climbing Houston Center
10:56AM 27.2944 -91.2072 274° West 439 505 38,700 480 Climbing Houston Center
10:57AM 27.3078 -91.3403 276° West 433 498 39,200 480 Climbing Houston Center
10:58AM 27.3408 -91.4953 284° West 428 493 39,700 360 Climbing Houston Center
10:59AM 27.3908 -91.6147 295° West 424 488 40,000 120 Climbing Houston Center
11:00AM 27.4386 -91.7258 296° West 425 489 40,000  Level Houston Center
11:01AM 27.4906 -91.8453 296° West 426 490 40,000 -60 Level Houston Center
11:02AM 27.5544 -91.9931 296° West 435 501 39,900 -60 Descending Houston Center
11:03AM 27.6061 -92.1133 296° West 429 494 39,900  Level Houston Center
11:04AM 27.6583 -92.2353 296° West 431 496 40,000  Climbing Houston Center
11:05AM 27.7100 -92.3569 296° West 431 496 40,000 -60 Level Houston Center
11:06AM 27.7633 -92.4797 296° West 433 498 39,900  Descending Houston Center
11:07AM 27.8158 -92.6022 296° West 434 499 40,000  Climbing Houston Center
11:08AM 27.8672 -92.7258 295° West 434 499 40,000  Level Houston Center
11:09AM 27.9308 -92.8733 296° West 435 501 40,000  Level Houston Center
11:10AM 27.9825 -92.9964 295° West 435 501 40,000  Level Houston Center
11:12AM 28.0319 -93.1217 294° West 435 501 40,000  Level Houston Center
11:13AM 28.0858 -93.2492 296° West 434 499 40,000  Level Houston Center
11:14AM 28.1369 -93.3725 295° West 432 497 40,000  Level Houston Center
11:15AM 28.1883 -93.4950 295° West 433 498 40,000  Level Houston Center
11:16AM 28.2392 -93.6197 295° West 434 499 40,000  Level Houston Center
11:17AM 28.2894 -93.7414 295° West 431 496 40,000  Level Houston Center
11:18AM 28.3406 -93.8644 295° West 431 496 40,000  Level Houston Center
11:19AM 28.4008 -94.0122 295° West 430 495 40,000  Level Houston Center
11:20AM 28.4508 -94.1353 295° West 429 494 40,000  Level Houston Center
11:21AM 28.5000 -94.2556 295° West 423 487 40,100 300 Climbing Houston Center
11:22AM 28.5475 -94.3744 294° West 414 476 40,700 360 Climbing Houston Center
11:23AM 28.5947 -94.4906 295° West 407 468 40,900 120 Climbing Houston Center
11:24AM 28.6419 -94.6061 295° West 405 466 41,000  Climbing Houston Center
11:25AM 28.6983 -94.7467 295° West 406 467 41,000  Level Houston Center
11:26AM 28.7450 -94.8653 294° West 408 470 41,000  Level Houston Center
11:27AM 28.7928 -94.9833 295° West 410 472 41,000  Level Houston Center
11:28AM 28.8400 -95.1031 294° West 413 475 41,000  Level Houston Center
11:29AM 28.8869 -95.2225 294° West 411 473 41,000  Level Houston Center
11:30AM 28.9339 -95.3428 294° West 413 475 41,000  Level Houston Center
11:31AM 28.9808 -95.4625 294° West 413 475 41,000  Level Houston Center
11:32AM 29.0292 -95.5825 295° West 413 475 41,000  Level Houston Center
11:33AM 29.0847 -95.7269 294° West 412 474 41,000  Level Houston Center
11:34AM 29.1317 -95.8469 294° West 413 475 41,000  Level Houston Center
11:35AM 29.1783 -95.9678 294° West 414 476 41,000  Level Houston Center
11:36AM 29.2264 -96.0886 295° West 410 472 41,000  Level Houston Center
11:37AM 29.2711 -96.2067 293° West 406 467 41,000  Level Houston Center
11:38AM 29.3167 -96.3233 294° West 404 465 41,000  Level Houston Center
11:39AM 29.3631 -96.4386 295° West 401 461 41,000  Level Houston Center
11:40AM 29.4161 -96.5769 294° West 399 459 41,000 -60 Level Houston Center
11:41AM 29.4597 -96.6933 293° West 401 461 40,900  Descending Houston Center
11:42AM 29.5022 -96.8061 293° West 393 452 41,000  Climbing Houston Center
11:43AM 29.5456 -96.9169 294° West 389 448 41,000  Level Houston Center
11:44AM 29.5950 -97.0517 293° West 387 445 41,000  Level Houston Center
11:46AM 29.6375 -97.1816 294° West  Level FlightAware Approximate
11:47AM 29.6806 -97.2817 294° West 395 455 41,000  Level Houston Center
11:48AM 29.7236 -97.3969 293° West 395 455 41,000  Level Houston Center
11:49AM 29.7675 -97.5144 293° West 400 460 41,000  Level Houston Center
11:50AM 29.8178 -97.6489 293° West 397 457 41,000  Level Houston Center
11:51AM 29.8656 -97.7764 293° West 402 463 41,000  Level Houston Center
11:52AM 29.9100 -97.8972 293° West 409 471 41,000  Level Houston Center
11:53AM 29.9542 -98.0175 293° West 411 473 41,000  Level Houston Center
11:55AM 30.0472 -98.2731 293° West 419 482 41,000  Level Houston Center
11:57AM 30.1469 -98.5272 294° West 419 482 41,000  Level Houston Center
11:58AM 30.2078 -98.6547 299° West 420 483 41,000  Level Houston Center
11:59AM 30.2625 -98.7744 298° West 423 487 41,000  Level Houston Center
12:00PM 30.3136 -98.8839 298° West 420 483 41,000  Level Houston Center
12:01PM 30.3722 -99.0047 299° West 424 488 41,000  Level Houston Center
12:02PM 30.4353 -99.1397 298° West 423 487 41,000  Level Houston Center
12:04PM 30.5461 -99.3781 298° West 422 486 41,000  Level Houston Center
12:05PM 30.6014 -99.4986 298° West 424 488 41,000  Level Houston Center
12:06PM 30.6686 -99.6431 298° West 425 489 41,000  Level Houston Center
12:07PM 30.7231 -99.7622 298° West 419 482 41,000  Level Houston Center
12:08PM 30.7778 -99.8808 298° West 427 491 41,000  Level Houston Center
12:09PM 30.8344 -100.0081 297° West 434 499 41,000  Level Houston Center
12:10PM 30.8900 -100.1242 299° West 418 481 41,000  Level Houston Center
12:11PM 30.9564 -100.2761 297° West 433 498 41,000  Level Houston Center
12:12PM 31.0133 -100.4014 298° West 440 506 41,000  Level Houston Center
12:13PM 31.0692 -100.5253 298° West 436 502 41,000  Level Houston Center
12:14PM 31.1247 -100.6497 298° West 434 499 41,000  Level Houston Center
12:16PM 31.1806 -100.7767 297° West 438 504 41,000  Level Houston Center
12:17PM 31.2367 -100.9017 298° West 438 504 41,000  Level Houston Center
12:18PM 31.3031 -101.0489 298° West 417 480 41,000  Level Houston Center
12:19PM 31.3583 -101.1747 297° West 428 493 41,000  Level Houston Center
12:20PM 31.4142 -101.3003 298° West 428 493 41,000  Level Houston Center
12:20PM 31.4650 -101.4097 299° West 438 504 41,000  Level Fort Worth Center
12:21PM 31.5192 -101.5389 296° West 438 504 41,000  Level Fort Worth Center
12:23PM 31.5961 -101.7119 298° West 448 516 41,000  Level Houston Center
12:23PM 31.6394 -101.8103 297° West 446 513 41,000 -300 Level Fort Worth Center
12:24PM 31.6972 -101.9447 297° West 441 507 40,500 -540 Descending Fort Worth Center
12:25PM 31.7531 -102.0744 297° West 441 507 40,000 -300 Descending Fort Worth Center
12:26PM 31.8067 -102.2044 296° West 441 507 40,000  Level Fort Worth Center
12:27PM 31.8603 -102.3319 296° West 441 507 40,000  Level Fort Worth Center
12:28PM 31.9156 -102.4619 297° West 441 507 40,000  Level Fort Worth Center
12:29PM 31.9689 -102.5900 296° West 441 507 40,000  Level Fort Worth Center
12:30PM 32.0258 -102.7231 297° West 441 507 40,000  Level Fort Worth Center
12:31PM 32.0786 -102.8558 295° West 446 513 40,000  Level Fort Worth Center
12:32PM 32.1297 -102.9767 297° West 446 513 40,000  Level Fort Worth Center
12:33PM 32.1589 -103.0439 297° West 449 517 40,000  Level Albuquerque Center
12:34PM 32.2144 -103.1769 296° West 450 518 40,000  Level Albuquerque Center
12:35PM 32.2686 -103.3078 296° West 445 512 40,000  Level Albuquerque Center
12:37PM 32.3878 -103.5964 296° West 443 510 40,000  Level Albuquerque Center
12:38PM 32.4400 -103.7278 295° West 441 507 40,000  Level Albuquerque Center
12:39PM 32.4953 -103.8589 297° West 443 510 40,000  Level Albuquerque Center
12:40PM 32.5497 -103.9911 296° West 445 512 40,000  Level Albuquerque Center
12:41PM 32.6131 -104.1400 297° West 442 509 40,000  Level Albuquerque Center
12:42PM 32.6658 -104.2719 295° West 443 510 40,000  Level Albuquerque Center
12:43PM 32.7219 -104.4131 295° West 441 507 40,000  Level Albuquerque Center
12:44PM 32.7747 -104.5436 296° West 438 504 40,000  Level Albuquerque Center
12:45PM 32.8261 -104.6733 295° West 434 499 40,000  Level Albuquerque Center
12:46PM 32.8819 -104.8153 295° West 437 503 40,000  Level Albuquerque Center
12:47PM 32.9339 -104.9469 295° West 438 504 40,000  Level Albuquerque Center
12:49PM 32.9911 -105.0894 296° West 442 509 40,000  Level Albuquerque Center
12:50PM 33.0431 -105.2231 295° West 443 510 40,000  Level Albuquerque Center
12:51PM 33.0958 -105.3558 295° West 441 507 40,000  Level Albuquerque Center
12:52PM 33.1522 -105.4997 295° West 442 509 40,000  Level Albuquerque Center
12:53PM 33.1978 -105.6136 296° West 444 511 40,000  Level Albuquerque Center
12:55PM 33.3144 -105.9100 295° West 450 518 40,000  Level Albuquerque Center
12:56PM 33.3628 -106.0403 294° West 442 509 40,000  Level Albuquerque Center
12:57PM 33.4144 -106.1739 295° West 443 510 40,000  Level Albuquerque Center
12:58PM 33.4647 -106.3081 294° West 443 510 40,000  Level Albuquerque Center
12:59PM 33.5267 -106.4697 295° West 447 514 40,000  Level Albuquerque Center
01:00PM 33.5786 -106.6064 295° West 450 518 40,000  Level Albuquerque Center
01:01PM 33.6300 -106.7433 294° West 452 520 40,000  Level Albuquerque Center
01:02PM 33.6817 -106.8817 294° West 455 524 40,000  Level Albuquerque Center
01:03PM 33.7325 -107.0189 294° West 454 522 40,000  Level Albuquerque Center
01:04PM 33.7839 -107.1569 294° West 455 524 40,000  Level Albuquerque Center
01:06PM 33.8538 -107.3468 294° West  Level FlightAware Approximate
01:06PM 33.8969 -107.4647 294° West 457 526 40,000  Level Albuquerque Center
01:07PM 33.9489 -107.6050 294° West 460 529 40,000  Level Albuquerque Center
01:08PM 33.9992 -107.7464 293° West 461 531 40,000  Level Albuquerque Center
01:09PM 34.0517 -107.8872 294° West 462 532 40,000  Level Albuquerque Center
01:10PM 34.1122 -108.0572 293° West 462 532 40,000  Level Albuquerque Center
01:11PM 34.1667 -108.2006 295° West 461 531 40,000  Level Albuquerque Center
01:12PM 34.2178 -108.3425 294° West 465 535 40,000  Level Albuquerque Center
01:13PM 34.2675 -108.4836 293° West 463 533 40,000  Level Albuquerque Center
01:15PM 34.3209 -108.6366 293° West  Level FlightAware Approximate
01:15PM 34.3736 -108.7819 293° West 447 514 40,000  Level Albuquerque Center
01:16PM 34.4200 -108.9139 293° West 446 513 40,000  Level Albuquerque Center
01:17PM 34.4750 -109.0692 293° West 445 512 40,000  Level Albuquerque Center
01:19PM 34.5217 -109.2039 293° West 449 517 40,000  Level Albuquerque Center
01:20PM 34.5758 -109.3594 293° West 448 516 40,000  Level Albuquerque Center
01:21PM 34.6222 -109.4953 293° West 450 518 40,000  Level Albuquerque Center
01:22PM 34.6681 -109.6294 293° West 447 514 40,000  Level Albuquerque Center
01:23PM 34.7228 -109.7856 293° West 447 514 40,000  Level Albuquerque Center
01:24PM 34.7681 -109.9192 292° West 446 513 40,000  Level Albuquerque Center
01:25PM 34.8206 -110.0736 293° West 443 510 40,000  Level Albuquerque Center
01:26PM 34.8667 -110.2089 293° West 447 514 40,000  Level Albuquerque Center
01:27PM 34.9169 -110.3625 292° West 441 507 40,000  Level Albuquerque Center
01:28PM 34.9608 -110.4931 292° West 438 504 40,000 -600 Level Albuquerque Center
01:30PM 35.0533 -110.7733 292° West 449 517 38,300 -1,500 Descending Los Angeles Center
01:32PM 35.1578 -111.0622 294° West 433 498 34,000 -2,040 Descending Albuquerque Center
01:33PM 35.1869 -111.2133 283° West 443 510 31,900 -1,740 Descending Albuquerque Center
01:34PM 35.2178 -111.3614 284° West 449 517 30,500 -960 Descending Albuquerque Center
01:35PM 35.2642 -111.5031 292° West 448 516 30,000 -300 Descending Albuquerque Center
01:36PM 35.3125 -111.6700 290° West 454 522 30,000  Level Albuquerque Center
01:37PM 35.3353 -111.8278 280° West 475 547 30,000  Level Albuquerque Center
01:38PM 35.3644 -111.9864 283° West 481 554 30,000  Level Albuquerque Center
01:39PM 35.3922 -112.1461 282° West 484 557 30,000  Level Los Angeles Center
01:40PM 35.4192 -112.3056 282° West 482 555 30,000  Level Los Angeles Center
01:41PM 35.4467 -112.4644 282° West 481 554 30,000  Level Los Angeles Center
01:42PM 35.4789 -112.6517 282° West 483 556 30,000  Level Los Angeles Center
01:43PM 35.5047 -112.8108 281° West 474 545 30,000 -180 Level Los Angeles Center
01:44PM 35.5331 -112.9772 282° West 447 514 29,700 -900 Descending Los Angeles Center
01:45PM 35.5572 -113.1283 281° West 441 507 28,200 -1,680 Descending Los Angeles Center
01:46PM 35.5806 -113.2689 282° West 427 491 26,300 -1,680 Descending Los Angeles Center
01:47PM 35.6039 -113.4125 281° West 432 497 24,800 -1,140 Descending Los Angeles Center
01:48PM 35.6256 -113.5469 281° West 415 478 24,000 -1,260 Descending Los Angeles Center
01:49PM 35.6444 -113.6814 280° West 405 466 22,200 -2,220 Descending Los Angeles Center
01:51PM 35.6669 -113.8381 280° West 391 450 19,400 -2,400 Descending Los Angeles Center
01:52PM 35.6856 -113.9664 280° West 385 443 17,300 -1,800 Descending Los Angeles Center
01:53PM 35.7028 -114.0897 280° West 371 427 15,800 -1,560 Descending Los Angeles Center
01:53PM 35.7139 -114.1708 280° West 373 429 14,700 -1,620 Descending Los Angeles Center
01:54PM 35.7339 -114.3258 279° West 361 415 12,800 -1,200 Descending Los Angeles Center
01:55PM 35.7861 -114.4039 310° West 316 364 12,000 -1,020 Descending Los Angeles Center
01:56PM 35.8628 -114.4364 341° North 310 357 10,900 -1,200 Descending Los Angeles Center
01:57PM 35.9386 -114.4664 342° North 288 331 9,800 -1,020 Descending Los Angeles Center
01:58PM 36.0081 -114.4961 341° North 291 335 9,000 -780 Descending Los Angeles Center
02:00PM 36.1253 -114.5247 349° North 292 336 8,000 -420 Descending Los Angeles Center
02:01PM 36.2025 -114.5400 351° North 285 328 8,000 -60 Level Los Angeles Center
02:02PM 36.2256 -114.6058 293° West 260 299 7,900 -540 Descending Los Angeles Center
02:03PM 36.1981 -114.7044 251° West 253 291 7,000 -480 Descending Los Angeles Center
02:04PM 36.1764 -114.7856 252° West 249 287 7,000 -360 Level Los Angeles Center
02:05PM 36.1564 -114.8600 252° West 235 270 6,300 -780 Descending Los Angeles Center
02:06PM 36.1469 -114.9583 263° West 187 215 5,200 -900 Descending Los Angeles Center
02:07PM 36.1453 -115.0203 268° West 181 208 4,200 -960 Descending Los Angeles Center
02:08PM 36.1444 -115.0544 268° West 186 214 3,600 -780 Descending Los Angeles Center
02:09PM 36.1331 -115.1414 261° West 173 199 2,800 -660 Descending Los Angeles Center
02:10PM 36.0981 -115.1569 200° South 175 201 2,300 -660 Descending Los Angeles Center
02:12PM 36.0801 -115.1523 270° West  Level Estimated